Time;durP1;ratioP1;P1;durP2;ratioP2;P2;SDS_P1;SDS_P2;PMS_P1;PMS_P2;Temp;Humidity;BMP_temperature;BMP_pressure;BME280_temperature;BME280_humidity;BME280_pressure;Samples;Min_cycle;Max_cycle;Signal;HPM_P1;HPM_P2
2021/05/22 00:02:06;;;;;;;13.38;4.48;;;;;;;9.80;70.80;99455.24;129942;1101;22646;-65
2021/05/22 00:04:34;;;;;;;8.40;3.83;;;;;;;9.79;71.21;99459.03;129918;1101;22635;-65
2021/05/22 00:07:03;;;;;;;6.60;3.53;;;;;;;9.78;70.95;99460.94;129970;1101;22553;-65
2021/05/22 00:09:31;;;;;;;12.30;4.33;;;;;;;9.76;71.15;99457.64;129917;1101;23917;-65
2021/05/22 00:11:59;;;;;;;10.73;3.40;;;;;;;9.75;70.90;99455.99;129935;1101;22540;-65
2021/05/22 00:14:28;;;;;;;10.00;3.10;;;;;;;9.73;70.80;99455.42;129987;1101;22543;-65
2021/05/22 00:16:57;;;;;;;12.57;3.60;;;;;;;9.73;70.94;99457.32;129941;1101;23152;-64
2021/05/22 00:19:25;;;;;;;11.03;3.70;;;;;;;9.71;71.03;99451.30;129957;1101;22531;-65
2021/05/22 00:22:09;;;;;;;13.03;3.47;;;;;;;9.70;71.08;99449.66;129895;1101;22697;-65
2021/05/22 00:24:38;;;;;;;16.30;3.50;;;;;;;9.69;71.36;99450.73;129949;1101;22584;-65
2021/05/22 00:27:06;;;;;;;13.83;3.70;;;;;;;9.69;71.09;99456.17;129967;1101;22540;-65
2021/05/22 00:29:35;;;;;;;9.23;3.33;;;;;;;9.68;71.25;99460.79;129951;1101;22650;-65
2021/05/22 00:32:03;;;;;;;11.20;3.83;;;;;;;9.68;71.15;99473.57;129866;1101;22569;-65
2021/05/22 00:34:32;;;;;;;13.30;3.17;;;;;;;9.67;71.51;99464.58;130013;1101;22537;-66
2021/05/22 00:37:01;;;;;;;12.57;4.17;;;;;;;9.64;71.05;99467.84;129948;1101;22602;-66
2021/05/22 00:39:30;;;;;;;15.13;3.43;;;;;;;9.63;71.37;99471.63;129931;1101;24026;-66
2021/05/22 00:42:03;;;;;;;14.33;3.60;;;;;;;9.62;71.61;99471.88;129884;1101;23221;-66
2021/05/22 00:44:32;;;;;;;9.30;3.40;;;;;;;9.60;71.67;99460.42;129979;1101;22667;-66
2021/05/22 00:47:01;;;;;;;16.70;3.60;;;;;;;9.58;71.60;99468.83;129916;1101;22686;-65
2021/05/22 00:49:30;;;;;;;7.47;3.90;;;;;;;9.57;71.53;99459.85;129963;1101;22525;-65
2021/05/22 00:51:58;;;;;;;15.27;5.87;;;;;;;9.57;71.42;99459.03;129878;1101;22552;-66
2021/05/22 00:54:26;;;;;;;11.23;3.60;;;;;;;9.55;71.55;99456.56;129934;1101;22677;-65
2021/05/22 00:56:55;;;;;;;16.35;3.90;;;;;;;9.55;71.55;99458.45;129945;1101;23276;-65
2021/05/22 00:59:23;;;;;;;12.43;4.07;;;;;;;9.53;71.35;99461.42;129944;1101;22542;-65
2021/05/22 01:01:52;;;;;;;14.77;5.07;;;;;;;9.49;71.27;99452.14;129882;1101;22804;-65
2021/05/22 01:04:20;;;;;;;12.37;4.00;;;;;;;9.51;71.76;99458.16;129719;1101;22607;-65
2021/05/22 01:06:55;;;;;;;12.80;3.75;;;;;;;9.50;71.44;99447.53;129885;1101;22681;-65
2021/05/22 01:09:24;;;;;;;23.10;4.70;;;;;;;9.45;71.43;99451.00;129945;1101;22678;-65
2021/05/22 01:12:04;;;;;;;18.53;4.60;;;;;;;9.43;71.55;99464.02;129703;1101;22548;-65
2021/05/22 01:14:52;;;;;;;11.87;4.80;;;;;;;9.41;72.12;99460.73;129727;1101;22518;-65
2021/05/22 01:17:22;;;;;;;19.60;3.93;;;;;;;9.41;71.92;99462.63;129925;1101;23597;-65
2021/05/22 01:19:58;;;;;;;6.25;3.40;;;;;;;9.39;71.58;99462.05;129753;1101;22636;-65
2021/05/22 01:22:27;;;;;;;16.07;3.43;;;;;;;9.39;72.15;99456.61;129660;1101;22728;-65
2021/05/22 01:25:00;;;;;;;10.40;3.30;;;;;;;9.40;71.83;99461.80;129715;1101;22579;-65
2021/05/22 01:27:28;;;;;;;7.70;3.30;;;;;;;9.40;71.57;99464.52;125394;1096;26207;-64
2021/05/22 01:29:58;;;;;;;8.90;3.70;;;;;;;9.40;71.84;99466.41;125113;1096;22732;-64
2021/05/22 01:32:26;;;;;;;12.40;3.83;;;;;;;9.40;72.10;99477.28;125029;1101;22789;-64
2021/05/22 01:34:56;;;;;;;16.60;3.80;;;;;;;9.40;72.02;99477.28;129911;1101;22618;-64
2021/05/22 01:37:24;;;;;;;10.80;3.90;;;;;;;9.38;72.19;99472.09;129989;1101;22674;-65
2021/05/22 01:39:53;;;;;;;13.10;4.03;;;;;;;9.37;72.23;99478.64;129921;1101;22675;-65
2021/05/22 01:42:21;;;;;;;15.97;3.80;;;;;;;9.36;72.59;99474.27;129998;1101;22535;-65
2021/05/22 01:44:51;;;;;;;11.65;4.40;;;;;;;9.35;72.27;99483.50;129705;1102;22608;-65
2021/05/22 01:47:20;;;;;;;15.67;4.20;;;;;;;9.35;71.78;99482.67;129668;1102;23499;-65
2021/05/22 01:49:48;;;;;;;11.93;4.17;;;;;;;9.33;72.26;99480.20;129718;1101;22653;-65
2021/05/22 01:52:20;;;;;;;18.50;5.67;;;;;;;9.32;72.54;99478.56;129719;1101;23335;-65
2021/05/22 01:54:49;;;;;;;15.20;3.95;;;;;;;9.30;72.49;99477.98;129933;1101;22579;-65
2021/05/22 01:57:17;;;;;;;14.27;3.80;;;;;;;9.30;72.61;99483.42;129662;1101;22667;-65
2021/05/22 01:59:45;;;;;;;20.50;3.90;;;;;;;9.30;72.43;99486.14;129943;1101;22584;-65
2021/05/22 02:02:14;;;;;;;18.45;4.15;;;;;;;9.29;72.21;99486.39;129707;1101;22551;-65
2021/05/22 02:04:44;;;;;;;13.00;4.20;;;;;;;9.27;72.59;99483.09;129930;1101;22684;-65
2021/05/22 02:07:18;;;;;;;23.70;4.47;;;;;;;9.28;72.64;99482.84;129742;1101;22590;-65
2021/05/22 02:09:47;;;;;;;10.23;4.00;;;;;;;9.28;72.45;99490.17;129689;1101;23153;-65
2021/05/22 02:12:19;;;;;;;17.10;3.97;;;;;;;9.27;73.17;99486.63;129765;1101;22551;-65
2021/05/22 02:14:47;;;;;;;20.30;5.33;;;;;;;9.28;72.96;99487.45;129669;1101;22557;-65
2021/05/22 02:17:15;;;;;;;19.95;4.25;;;;;;;9.25;72.97;99483.34;129991;1101;22697;-65
2021/05/22 02:19:44;;;;;;;20.40;4.85;;;;;;;9.24;72.71;99478.97;129620;1101;23714;-65
2021/05/22 02:22:15;;;;;;;19.77;4.57;;;;;;;9.23;72.91;99478.14;129731;1101;22561;-65
2021/05/22 02:24:44;;;;;;;16.47;4.57;;;;;;;9.23;73.17;99481.97;129918;1101;22618;-65
2021/05/22 02:27:13;;;;;;;22.70;4.05;;;;;;;9.24;73.17;99484.41;125939;1102;22780;-59
2021/05/22 02:29:41;;;;;;;11.25;4.40;;;;;;;9.23;73.42;99484.69;129911;1101;23585;-59
2021/05/22 02:32:09;;;;;;;11.43;3.57;;;;;;;9.24;73.35;99492.56;129664;1101;22987;-59
2021/05/22 02:34:51;;;;;;;15.73;5.30;;;;;;;9.25;73.57;99498.83;129709;1102;22549;-59
2021/05/22 02:37:21;;;;;;;10.53;4.27;;;;;;;9.27;73.98;99496.69;129860;1101;23193;-59
2021/05/22 02:39:50;;;;;;;15.37;3.67;;;;;;;9.30;73.93;99491.58;129717;1101;22642;-59
2021/05/22 02:42:19;;;;;;;23.20;5.40;;;;;;;9.36;74.08;99501.47;129661;1101;22555;-59
2021/05/22 02:44:48;;;;;;;16.60;4.10;;;;;;;9.42;74.23;99500.45;129704;1102;23078;-59
2021/05/22 02:47:16;;;;;;;9.73;3.27;;;;;;;9.48;74.07;99501.34;129699;1101;22524;-59
2021/05/22 02:49:45;;;;;;;10.75;3.55;;;;;;;9.55;74.48;99499.25;129725;1102;22772;-59
2021/05/22 02:52:16;;;;;;;18.73;4.63;;;;;;;9.63;74.84;99500.73;129688;1101;22608;-59
2021/05/22 02:54:45;;;;;;;16.60;4.17;;;;;;;9.71;74.41;99501.09;129691;1104;22643;-59
2021/05/22 02:57:14;;;;;;;12.30;4.50;;;;;;;9.81;74.89;99514.03;129690;1101;22533;-59
2021/05/22 02:59:49;;;;;;;22.87;5.43;;;;;;;9.87;74.88;99519.27;129741;1101;22521;-59
2021/05/22 03:02:17;;;;;;;17.70;4.67;;;;;;;9.98;74.34;99522.92;129728;1101;22535;-59
2021/05/22 03:04:47;;;;;;;22.77;4.90;;;;;;;10.09;74.14;99521.98;129712;1101;22569;-59
2021/05/22 03:07:16;;;;;;;21.03;5.03;;;;;;;10.20;74.13;99528.39;125768;1101;22807;-64
2021/05/22 03:09:46;;;;;;;22.63;5.13;;;;;;;10.32;73.84;99522.80;129965;1101;23745;-64
2021/05/22 03:12:17;;;;;;;22.53;4.23;;;;;;;10.43;73.24;99522.64;129927;1101;22619;-64
2021/05/22 03:14:45;;;;;;;20.55;4.98;;;;;;;10.55;72.82;99525.20;129983;1101;22509;-64
2021/05/22 03:17:14;;;;;;;25.27;5.53;;;;;;;10.69;72.42;99531.05;129966;1101;22616;-64
2021/05/22 03:19:43;;;;;;;18.20;4.68;;;;;;;10.82;72.35;99525.20;129962;1101;22564;-64
2021/05/22 03:22:11;;;;;;;12.20;4.00;;;;;;;10.93;71.67;99535.93;129937;1101;23353;-64
2021/05/22 03:24:40;;;;;;;18.95;3.80;;;;;;;11.06;71.48;99540.12;129913;1101;22594;-64
2021/05/22 03:27:08;;;;;;;11.90;3.87;;;;;;;11.18;71.23;99538.03;129879;1101;22543;-64
2021/05/22 03:29:36;;;;;;;14.13;3.58;;;;;;;11.30;70.88;99535.11;129724;1101;22568;-64
2021/05/22 03:33:16;;;;;;;14.65;3.95;;;;;;;11.47;69.72;99535.77;125594;1090;22764;-64
2021/05/22 03:35:45;;;;;;;14.15;3.95;;;;;;;11.59;69.13;99533.66;129974;1101;23332;-64
2021/05/22 03:38:14;;;;;;;10.25;3.80;;;;;;;11.73;69.63;99530.45;129924;1101;22568;-64
2021/05/22 03:40:42;;;;;;;12.08;3.45;;;;;;;11.87;68.85;99531.64;130018;1101;22530;-64
2021/05/22 03:43:10;;;;;;;13.13;3.80;;;;;;;12.00;68.64;99536.61;129912;1101;22574;-64
2021/05/22 03:45:39;;;;;;;8.95;3.58;;;;;;;12.10;67.76;99539.41;129963;1101;22684;-64
2021/05/22 03:48:07;;;;;;;11.75;4.98;;;;;;;12.23;67.56;99540.81;129943;1101;22720;-64
2021/05/22 03:50:36;;;;;;;10.25;4.15;;;;;;;12.35;67.28;99539.48;130014;1101;22556;-64
2021/05/22 03:53:07;;;;;;;6.28;3.68;;;;;;;12.47;67.14;99533.77;129977;1101;22585;-64
2021/05/22 03:55:36;;;;;;;7.60;3.13;;;;;;;12.58;66.81;99542.80;130002;1101;22570;-64
2021/05/22 03:58:06;;;;;;;6.63;3.10;;;;;;;12.69;66.16;99536.28;129995;1101;22631;-64
2021/05/22 04:00:35;;;;;;;5.00;3.53;;;;;;;12.82;65.68;99546.68;129924;1101;23006;-64
2021/05/22 04:03:05;;;;;;;7.13;2.58;;;;;;;12.97;64.89;99548.60;129974;1101;22713;-64
2021/05/22 04:05:34;;;;;;;7.33;2.75;;;;;;;13.17;64.96;99547.80;129215;1101;23487;-60
2021/05/22 04:08:03;;;;;;;9.65;3.08;;;;;;;13.39;63.97;99554.64;130002;1101;22554;-59
2021/05/22 04:10:31;;;;;;;12.20;3.08;;;;;;;13.59;63.86;99559.23;129976;1101;22709;-59
2021/05/22 04:13:00;;;;;;;8.90;3.35;;;;;;;13.76;62.80;99565.23;129952;1101;23437;-59
2021/05/22 04:15:31;;;;;;;10.30;3.05;;;;;;;13.93;62.89;99555.88;129975;1101;23363;-59
2021/05/22 04:17:59;;;;;;;10.85;3.43;;;;;;;14.06;62.50;99563.49;129951;1101;22630;-60
2021/05/22 04:20:27;;;;;;;5.53;3.10;;;;;;;14.16;62.08;99552.48;129956;1101;22573;-60
2021/05/22 04:22:56;;;;;;;5.88;2.50;;;;;;;14.26;61.42;99557.13;129984;1101;23536;-59
2021/05/22 04:25:25;;;;;;;6.90;2.63;;;;;;;14.34;61.53;99567.48;129918;1101;22633;-60
2021/05/22 04:27:54;;;;;;;5.78;3.08;;;;;;;14.39;60.89;99557.33;130016;1101;22618;-60
2021/05/22 04:30:22;;;;;;;5.43;3.13;;;;;;;14.46;60.87;99559.77;129962;1101;23227;-60
2021/05/22 04:32:51;;;;;;;7.68;3.00;;;;;;;14.52;60.84;99555.09;129696;1101;23780;-60
2021/05/22 04:35:19;;;;;;;7.10;2.90;;;;;;;14.59;60.61;99566.55;129916;1101;22621;-65
2021/05/22 04:37:48;;;;;;;4.30;2.88;;;;;;;14.64;60.59;99567.35;130000;1101;22621;-65
2021/05/22 04:40:16;;;;;;;6.65;2.80;;;;;;;14.72;59.80;99555.77;129954;1101;22531;-64
2021/05/22 04:42:44;;;;;;;6.53;2.40;;;;;;;14.80;59.70;99552.44;129955;1101;22645;-64
2021/05/22 04:45:13;;;;;;;5.70;2.85;;;;;;;14.90;59.86;99553.47;129897;1101;22649;-64
2021/05/22 04:47:42;;;;;;;5.15;2.88;;;;;;;15.01;58.80;99553.09;129992;1101;23477;-63
2021/05/22 04:50:11;;;;;;;6.63;3.25;;;;;;;15.15;58.79;99556.00;129993;1101;23340;-63
2021/05/22 04:52:39;;;;;;;13.25;4.15;;;;;;;15.30;58.65;99547.64;129949;1101;22568;-63
2021/05/22 04:55:08;;;;;;;8.60;3.28;;;;;;;15.47;58.35;99558.19;129954;1101;23276;-64
2021/05/22 04:57:37;;;;;;;10.05;3.00;;;;;;;15.65;57.78;99556.69;129945;1101;23588;-63
2021/05/22 05:00:07;;;;;;;6.83;3.18;;;;;;;15.86;56.98;99560.87;129992;1101;22516;-63
2021/05/22 05:02:36;;;;;;;6.00;2.83;;;;;;;16.09;56.67;99562.78;129941;1101;22579;-64
2021/05/22 05:05:05;;;;;;;6.38;2.95;;;;;;;16.34;56.35;99563.56;129924;1101;22552;-64
2021/05/22 05:07:41;;;;;;;3.90;2.60;;;;;;;16.59;55.48;99560.50;129943;1101;22529;-64
2021/05/22 05:10:10;;;;;;;4.40;2.90;;;;;;;16.87;54.97;99558.74;129943;1101;22703;-64
2021/05/22 05:12:40;;;;;;;7.53;2.80;;;;;;;17.19;54.43;99563.44;129907;1101;22571;-64
2021/05/22 05:15:09;;;;;;;10.53;2.80;;;;;;;17.50;53.18;99553.55;130016;1101;22505;-65
2021/05/22 05:17:37;;;;;;;5.00;2.08;;;;;;;17.84;52.57;99560.68;129942;1101;22559;-64
2021/05/22 05:20:11;;;;;;;8.35;2.05;;;;;;;18.13;51.56;99560.38;129982;1101;22659;-65
2021/05/22 05:22:40;;;;;;;6.70;2.85;;;;;;;18.41;50.57;99559.23;129969;1101;22678;-64
2021/05/22 05:25:09;;;;;;;4.45;2.68;;;;;;;18.65;50.25;99556.25;130021;1101;22575;-64
2021/05/22 05:27:37;;;;;;;7.08;2.80;;;;;;;18.85;50.08;99552.22;129947;1101;23725;-64
2021/05/22 05:30:10;;;;;;;5.70;2.43;;;;;;;19.03;49.64;99552.05;130023;1101;23297;-64
2021/05/22 05:32:38;;;;;;;5.68;2.50;;;;;;;19.20;49.17;99554.10;129964;1101;22655;-64
2021/05/22 05:35:09;;;;;;;6.23;3.80;;;;;;;19.31;48.12;99549.16;129966;1101;23457;-64
2021/05/22 05:37:38;;;;;;;6.00;2.88;;;;;;;19.46;47.77;99553.48;129951;1101;22660;-64
2021/05/22 05:40:08;;;;;;;5.28;2.35;;;;;;;19.60;48.04;99549.53;130012;1101;22677;-64
2021/05/22 05:42:36;;;;;;;11.08;5.45;;;;;;;19.73;47.43;99559.69;129902;1101;22701;-65
2021/05/22 05:45:07;;;;;;;6.35;3.50;;;;;;;19.84;47.05;99562.98;130014;1101;22527;-64
2021/05/22 05:47:35;;;;;;;6.05;3.70;;;;;;;19.89;46.57;99573.91;129992;1101;22632;-64
2021/05/22 05:50:04;;;;;;;8.45;4.23;;;;;;;19.92;46.47;99573.25;129989;1101;23461;-65
2021/05/22 05:52:32;;;;;;;10.65;4.73;;;;;;;19.98;47.02;99580.28;130025;1101;23163;-65
2021/05/22 05:55:00;;;;;;;4.80;3.08;;;;;;;20.02;46.44;99583.23;129941;1101;22749;-65
2021/05/22 05:57:29;;;;;;;4.18;2.63;;;;;;;20.02;46.18;99586.82;130004;1101;22654;-64
2021/05/22 06:00:00;;;;;;;6.38;3.10;;;;;;;19.98;45.45;99588.58;129924;1101;22533;-65
2021/05/22 06:02:28;;;;;;;5.70;2.83;;;;;;;19.97;46.11;99589.72;129967;1101;22586;-64
2021/05/22 06:04:57;;;;;;;5.95;3.00;;;;;;;19.96;45.54;99588.08;129957;1101;22666;-64
2021/05/22 06:07:26;;;;;;;5.95;3.03;;;;;;;19.92;45.77;99583.50;129770;1101;22581;-64
2021/05/22 06:09:55;;;;;;;6.73;2.70;;;;;;;19.82;45.55;99587.36;129592;1101;22591;-64
2021/05/22 06:12:23;;;;;;;5.05;2.10;;;;;;;19.72;45.60;99590.41;129580;1101;22572;-64
2021/05/22 06:15:02;;;;;;;3.28;1.75;;;;;;;19.62;45.77;99602.52;129868;1101;22562;-65
2021/05/22 06:17:31;;;;;;;5.90;1.78;;;;;;;19.51;45.73;99603.92;130024;1101;22569;-65
2021/05/22 06:20:00;;;;;;;5.25;1.73;;;;;;;19.41;45.78;99613.27;129956;1101;23458;-64
2021/05/22 06:22:28;;;;;;;3.63;1.88;;;;;;;19.34;46.27;99618.39;130030;1101;22559;-64
2021/05/22 06:24:57;;;;;;;4.40;1.75;;;;;;;19.24;46.29;99618.65;129936;1101;22547;-66
2021/05/22 06:27:26;;;;;;;3.65;1.70;;;;;;;19.14;46.70;99620.84;129984;1101;23086;-65
2021/05/22 06:30:01;;;;;;;6.08;2.20;;;;;;;19.05;46.92;99620.75;129942;1101;23468;-65
2021/05/22 06:32:30;;;;;;;8.53;3.10;;;;;;;19.03;47.54;99625.80;129954;1101;22654;-65
2021/05/22 06:34:59;;;;;;;2.43;1.70;;;;;;;19.02;47.26;99633.27;129899;1101;22531;-65
2021/05/22 06:37:28;;;;;;;6.00;1.70;;;;;;;19.01;46.27;99626.11;129728;1102;23731;-65
2021/05/22 06:39:57;;;;;;;15.88;2.40;;;;;;;19.03;46.09;99621.09;129933;1101;22614;-65
2021/05/22 06:42:30;;;;;;;8.90;2.13;;;;;;;19.03;46.06;99618.33;129896;1101;22595;-65
2021/05/22 06:45:20;;;;;;;2.75;1.40;;;;;;;19.05;46.73;99621.57;129662;1103;22617;-65
2021/05/22 06:47:49;;;;;;;2.85;1.90;;;;;;;19.06;46.32;99627.91;129656;1101;22684;-63
2021/05/22 06:50:17;;;;;;;7.85;1.75;;;;;;;19.08;46.66;99620.14;129850;1101;22628;-65
2021/05/22 06:52:46;;;;;;;8.65;1.80;;;;;;;19.09;46.44;99621.77;129530;1103;22587;-64
2021/05/22 06:55:16;;;;;;;3.48;2.80;;;;;;;19.09;45.82;99619.01;129853;1101;22633;-65
2021/05/22 06:57:44;;;;;;;4.53;1.93;;;;;;;19.12;46.36;99628.63;129867;1101;22545;-64
2021/05/22 07:00:14;;;;;;;7.50;2.00;;;;;;;19.14;46.21;99618.91;129670;1103;23007;-65
2021/05/22 07:02:43;;;;;;;6.35;2.10;;;;;;;19.18;46.54;99622.68;129850;1101;24257;-65
2021/05/22 07:05:12;;;;;;;8.35;1.68;;;;;;;19.23;46.17;99617.02;129919;1101;22588;-65
2021/05/22 07:07:41;;;;;;;9.95;2.40;;;;;;;19.27;45.59;99615.27;129822;1101;22595;-65
2021/05/22 07:10:12;;;;;;;5.98;1.83;;;;;;;19.32;45.31;99609.63;129628;1104;22648;-64
2021/05/22 07:12:41;;;;;;;5.30;1.65;;;;;;;19.32;45.37;99601.34;129653;1102;22623;-64
2021/05/22 07:15:10;;;;;;;5.58;1.83;;;;;;;19.34;45.56;99610.11;129878;1101;23085;-62
2021/05/22 07:17:39;;;;;;;5.30;1.83;;;;;;;19.36;44.86;99602.33;129614;1104;22733;-64
2021/05/22 07:20:08;;;;;;;6.48;2.50;;;;;;;19.37;44.78;99603.95;129913;1101;22646;-64
2021/05/22 07:22:37;;;;;;;3.88;1.80;;;;;;;19.40;44.60;99599.76;129884;1101;22574;-65
2021/05/22 07:25:06;;;;;;;5.75;2.00;;;;;;;19.40;44.79;99603.34;129675;1101;22533;-64
2021/05/22 07:27:35;;;;;;;4.68;1.75;;;;;;;19.44;44.42;99603.53;129564;1104;22592;-65
2021/05/22 07:30:08;;;;;;;3.88;1.70;;;;;;;19.48;44.63;99598.20;129598;1104;24998;-64
2021/05/22 07:32:38;;;;;;;7.63;2.03;;;;;;;19.50;44.43;99587.66;129892;1101;22615;-65
2021/05/22 07:35:07;;;;;;;5.25;1.60;;;;;;;19.51;44.53;99595.63;129930;1101;22586;-65
2021/05/22 07:37:35;;;;;;;2.65;1.35;;;;;;;19.52;43.69;99590.92;129860;1101;22554;-65
2021/05/22 07:40:06;;;;;;;4.53;2.10;;;;;;;19.54;43.92;99594.19;129943;1101;22736;-65
2021/05/22 07:42:34;;;;;;;7.40;2.00;;;;;;;19.56;44.80;99594.70;129897;1101;22570;-64
2021/05/22 07:45:03;;;;;;;12.48;2.03;;;;;;;19.58;45.31;99589.67;129912;1101;23557;-65
2021/05/22 07:47:32;;;;;;;4.98;2.00;;;;;;;19.64;45.33;99593.92;129921;1101;22634;-64
2021/05/22 07:50:00;;;;;;;7.85;2.43;;;;;;;19.67;45.48;99596.06;129891;1101;22518;-65
2021/05/22 07:52:29;;;;;;;3.10;1.70;;;;;;;19.70;45.40;99590.72;129916;1101;22714;-64
2021/05/22 07:54:59;;;;;;;4.75;1.90;;;;;;;19.75;45.18;99590.59;129931;1101;23008;-65
2021/05/22 07:57:35;;;;;;;;;;;;;;;19.80;44.13;99580.52;129943;1101;22561;-65
2021/05/22 08:00:06;;;;;;;4.00;1.78;;;;;;;19.82;44.88;99575.48;129966;1101;21332;-65
2021/05/22 08:02:35;;;;;;;4.85;1.70;;;;;;;19.85;45.16;99583.16;129993;1101;23530;-65
2021/05/22 08:05:05;;;;;;;8.73;2.28;;;;;;;19.86;45.14;99582.84;129917;1101;22622;-65
2021/05/22 08:07:34;;;;;;;3.75;1.38;;;;;;;19.87;45.28;99578.94;129969;1101;22656;-65
2021/05/22 08:10:03;;;;;;;3.33;1.83;;;;;;;19.87;45.46;99578.94;129918;1101;22553;-64
2021/05/22 08:12:33;;;;;;;6.58;1.95;;;;;;;19.88;45.36;99588.88;129982;1101;22551;-65
2021/05/22 08:15:01;;;;;;;4.30;1.85;;;;;;;19.90;44.97;99585.79;129951;1101;23167;-65
2021/05/22 08:17:29;;;;;;;2.35;1.68;;;;;;;19.90;44.93;99580.27;129967;1101;22562;-65
2021/05/22 08:19:58;;;;;;;7.85;1.58;;;;;;;19.91;44.42;99582.68;129952;1101;23180;-65
2021/05/22 08:22:28;;;;;;;9.88;1.95;;;;;;;19.91;45.13;99579.13;129982;1101;23348;-64
2021/05/22 08:24:57;;;;;;;3.05;1.55;;;;;;;19.92;45.40;99576.02;129910;1101;22674;-65
2021/05/22 08:27:25;;;;;;;3.25;1.48;;;;;;;19.94;44.60;99570.17;125687;1096;27094;-64
2021/05/22 08:29:56;;;;;;;6.50;1.85;;;;;;;19.96;44.96;99574.25;125398;1101;22760;-64
2021/05/22 08:32:25;;;;;;;9.00;2.33;;;;;;;20.01;45.11;99576.89;129986;1101;22730;-65
2021/05/22 08:34:54;;;;;;;9.90;1.80;;;;;;;20.04;44.17;99576.26;129863;1101;22664;-64
2021/05/22 08:37:24;;;;;;;5.58;1.30;;;;;;;20.08;44.01;99568.11;130038;1101;22539;-65
2021/05/22 08:39:53;;;;;;;3.83;1.88;;;;;;;20.09;44.00;99567.80;129902;1101;23477;-65
2021/05/22 08:42:23;;;;;;;5.33;1.55;;;;;;;20.11;43.74;99554.47;129990;1101;23128;-65
2021/05/22 08:44:52;;;;;;;2.90;1.43;;;;;;;20.13;43.28;99557.73;129981;1101;22556;-65
2021/05/22 08:47:21;;;;;;;12.70;2.20;;;;;;;20.12;43.49;99556.09;129979;1101;22592;-65
2021/05/22 08:49:49;;;;;;;3.53;1.63;;;;;;;20.15;43.29;99551.06;129943;1101;22597;-65
2021/05/22 08:52:19;;;;;;;7.03;1.65;;;;;;;20.14;42.42;99553.02;129721;1101;23264;-65
2021/05/22 08:54:47;;;;;;;5.90;1.60;;;;;;;20.14;42.76;99547.48;129976;1101;22651;-65
2021/05/22 08:57:17;;;;;;;10.13;1.70;;;;;;;20.16;43.62;99542.45;129722;1101;22550;-65
2021/05/22 08:59:47;;;;;;;3.45;1.50;;;;;;;20.20;43.83;99542.63;129983;1101;22581;-65
2021/05/22 09:02:18;;;;;;;4.68;2.30;;;;;;;20.21;42.50;99547.00;129968;1101;24845;-65
2021/05/22 09:05:08;;;;;;;7.58;1.70;;;;;;;20.20;42.65;99546.19;129974;1101;22609;-65
2021/05/22 09:07:39;;;;;;;7.30;1.30;;;;;;;20.21;42.39;99547.81;129986;1101;22607;-65
2021/05/22 09:10:18;;;;;;;2.48;1.55;;;;;;;20.24;42.67;99535.30;130007;1101;23313;-65
2021/05/22 09:12:49;;;;;;;4.15;1.65;;;;;;;20.26;42.75;99535.80;129986;1101;23327;-65
2021/05/22 09:15:25;;;;;;;7.38;1.70;;;;;;;20.28;42.80;99542.64;129967;1101;22649;-65
2021/05/22 09:17:55;;;;;;;10.50;1.63;;;;;;;20.32;42.38;99537.28;129683;1101;23207;-65
2021/05/22 09:20:52;;;;;;;2.93;1.33;;;;;;;20.35;41.84;99542.97;129988;1101;22614;-65
2021/05/22 09:23:24;;;;;;;4.55;1.23;;;;;;;20.41;42.44;99540.91;129980;1101;22665;-65
2021/05/22 09:25:59;;;;;;;2.43;1.50;;;;;;;20.45;42.43;99533.59;128596;1101;22789;-64
2021/05/22 09:28:33;;;;;;;3.85;1.40;;;;;;;20.48;41.95;99532.95;130008;1101;22630;-65
2021/05/22 09:31:02;;;;;;;2.80;1.45;;;;;;;20.50;41.05;99533.42;129964;1101;22545;-65
2021/05/22 09:33:32;;;;;;;5.58;1.48;;;;;;;20.52;41.13;99524.80;129719;1101;22630;-65
2021/05/22 09:36:03;;;;;;;5.90;1.68;;;;;;;20.54;40.91;99522.52;129938;1101;22539;-65
2021/05/22 09:38:36;;;;;;;5.60;1.48;;;;;;;20.55;41.70;99524.97;129896;1101;22569;-65
2021/05/22 09:41:25;;;;;;;4.85;1.68;;;;;;;20.58;41.54;99526.28;129964;1101;22600;-65
2021/05/22 09:44:08;;;;;;;2.38;1.30;;;;;;;20.61;41.19;99523.69;129946;1101;23617;-65
2021/05/22 09:46:58;;;;;;;1.20;1.10;;;;;;;20.64;41.48;99527.73;129982;1101;22657;-66
2021/05/22 09:49:30;;;;;;;6.95;1.33;;;;;;;20.68;40.69;99524.00;129994;1101;22664;-65
2021/05/22 09:52:06;;;;;;;5.75;2.28;;;;;;;20.71;41.74;99525.31;129891;1101;22565;-65
2021/05/22 09:54:40;;;;;;;3.23;1.60;;;;;;;20.72;41.45;99518.64;129963;1101;22573;-65
2021/05/22 09:57:10;;;;;;;3.23;1.23;;;;;;;20.70;41.48;99510.66;129934;1101;23231;-65
2021/05/22 09:59:38;;;;;;;10.00;1.80;;;;;;;20.68;41.85;99501.04;129976;1101;22729;-65
2021/05/22 10:02:06;;;;;;;4.35;1.30;;;;;;;20.66;41.75;99501.36;129991;1101;22545;-65
2021/05/22 10:04:35;;;;;;;26.10;2.70;;;;;;;20.67;41.89;99510.48;129694;1101;22549;-66
2021/05/22 10:07:03;;;;;;;9.85;2.13;;;;;;;20.68;42.05;99506.58;130009;1101;22557;-65
2021/05/22 10:09:38;;;;;;;2.85;1.50;;;;;;;20.70;41.66;99502.34;129967;1101;22525;-65
2021/05/22 10:12:11;;;;;;;3.98;1.40;;;;;;;20.74;42.08;99499.75;129756;1101;23756;-65
2021/05/22 10:14:59;;;;;;;5.08;1.63;;;;;;;20.76;42.73;99487.21;129958;1101;22526;-65
2021/05/22 10:17:28;;;;;;;5.63;1.93;;;;;;;20.80;42.62;99493.70;129987;1101;22561;-65
2021/05/22 10:19:57;;;;;;;2.48;1.50;;;;;;;20.82;42.67;99487.84;129648;1102;23503;-65
2021/05/22 10:22:26;;;;;;;2.05;1.25;;;;;;;20.83;42.65;99475.63;129983;1101;24643;-65
2021/05/22 10:24:55;;;;;;;5.78;1.30;;;;;;;20.83;42.22;99470.91;129972;1101;22656;-65
2021/05/22 10:27:23;;;;;;;2.98;1.60;;;;;;;20.84;42.62;99466.18;129675;1101;22574;-65
2021/05/22 10:29:52;;;;;;;2.93;1.28;;;;;;;20.83;42.20;99459.83;129967;1101;22623;-65
2021/05/22 10:32:26;;;;;;;2.45;1.50;;;;;;;20.82;42.71;99466.51;129988;1101;22572;-65
2021/05/22 10:34:56;;;;;;;3.00;1.38;;;;;;;20.84;42.45;99460.64;129901;1101;22567;-65
2021/05/22 10:37:37;;;;;;;1.30;1.20;;;;;;;20.86;41.38;99455.59;129965;1101;22574;-65
2021/05/22 10:40:06;;;;;;;3.58;1.30;;;;;;;20.88;41.66;99452.50;129934;1101;23298;-65
2021/05/22 10:42:35;;;;;;;5.35;1.70;;;;;;;20.90;42.51;99448.27;129970;1101;22561;-65
2021/05/22 10:45:24;;;;;;;8.10;1.60;;;;;;;20.92;42.44;99447.94;129958;1101;22626;-65
2021/05/22 10:47:54;;;;;;;5.68;1.38;;;;;;;20.96;42.18;99446.94;129985;1101;22586;-65
2021/05/22 10:50:43;;;;;;;4.08;1.40;;;;;;;20.99;42.60;99442.70;129984;1101;22511;-66
2021/05/22 10:53:24;;;;;;;2.80;1.20;;;;;;;21.02;41.93;99445.64;129969;1101;23464;-65
2021/05/22 10:56:05;;;;;;;3.10;1.37;;;;;;;21.02;42.74;99440.09;128534;1101;22770;-67
2021/05/22 10:58:34;;;;;;;3.20;1.28;;;;;;;21.03;42.12;99436.18;129983;1101;22566;-66
2021/05/22 11:01:28;;;;;;;4.88;1.20;;;;;;;21.07;41.30;99434.36;129931;1101;22560;-66
2021/05/22 11:04:13;;;;;;;3.68;1.70;;;;;;;21.09;41.02;99432.08;129963;1101;23041;-67
2021/05/22 11:06:44;;;;;;;7.18;2.10;;;;;;;21.11;41.20;99424.25;129941;1101;22695;-66
2021/05/22 11:09:28;;;;;;;4.83;1.30;;;;;;;21.17;40.91;99413.81;129997;1101;22566;-67
2021/05/22 11:11:58;;;;;;;3.35;1.10;;;;;;;21.19;40.85;99417.11;129894;1101;22538;-66
2021/05/22 11:14:44;;;;;;;2.20;1.30;;;;;;;21.22;40.95;99423.92;129977;1101;23059;-67
2021/05/22 11:17:25;;;;;;;5.38;1.30;;;;;;;21.23;40.79;99408.92;129964;1101;22548;-67
2021/05/22 11:20:13;;;;;;;9.38;1.53;;;;;;;21.22;40.42;99410.88;129999;1101;22754;-67
2021/05/22 11:22:44;;;;;;;15.73;1.80;;;;;;;21.24;39.63;99408.59;129955;1101;23226;-67
2021/05/22 11:25:14;;;;;;;6.15;1.28;;;;;;;21.26;39.97;99395.22;129967;1101;22620;-66
2021/05/22 11:27:44;;;;;;;2.45;1.10;;;;;;;21.29;40.46;99399.30;129956;1101;22570;-66
2021/05/22 11:30:27;;;;;;;2.80;1.18;;;;;;;21.32;41.08;99410.54;129962;1101;23605;-66
2021/05/22 11:33:09;;;;;;;1.68;1.03;;;;;;;21.35;38.76;99403.52;129920;1101;22563;-66
2021/05/22 11:35:48;;;;;;;1.65;1.10;;;;;;;21.40;39.57;99406.91;129951;1101;22671;-66
2021/05/22 11:38:21;;;;;;;2.68;1.18;;;;;;;21.45;38.85;99406.73;129888;1101;22536;-66
2021/05/22 11:41:01;;;;;;;5.03;1.23;;;;;;;21.50;38.65;99403.75;129975;1101;22534;-67
2021/05/22 11:43:33;;;;;;;3.45;1.20;;;;;;;21.56;39.01;99409.13;129944;1101;22640;-67